createdAt,value
2018-05-16T00:02:13.347Z,70.28
2018-05-16T00:04:41.470Z,70.33
2018-05-16T00:07:09.570Z,70.64
2018-05-16T00:09:37.673Z,70.44
2018-05-16T00:12:05.788Z,69.65
2018-05-16T00:14:33.904Z,69.97
2018-05-16T00:17:02.801Z,69.95
2018-05-16T00:19:36.416Z,70.01
2018-05-16T00:22:04.511Z,69.38
2018-05-16T00:24:32.944Z,69.30
2018-05-16T00:27:01.325Z,70.35
2018-05-16T00:29:29.416Z,70.42
2018-05-16T00:31:57.526Z,70.06
2018-05-16T00:34:25.665Z,70.73
2018-05-16T00:36:53.799Z,71.16
2018-05-16T00:39:22.144Z,71.45
2018-05-16T00:41:50.255Z,71.33
2018-05-16T00:44:18.485Z,71.85
2018-05-16T00:46:46.624Z,71.87
2018-05-16T00:49:15.257Z,71.50
2018-05-16T00:51:43.364Z,72.17
2018-05-16T00:54:11.475Z,72.88
2018-05-16T00:56:39.600Z,72.75
2018-05-16T00:59:07.696Z,72.67
2018-05-16T01:01:35.792Z,72.67
2018-05-16T01:04:04.213Z,72.87
2018-05-16T01:06:32.313Z,73.11
2018-05-16T01:09:00.424Z,73.47
2018-05-16T01:11:28.553Z,73.75
2018-05-16T01:13:57.562Z,73.34
2018-05-16T01:16:25.700Z,73.43
2018-05-16T01:18:54.788Z,72.90
2018-05-16T01:21:23.188Z,72.60
2018-05-16T01:23:51.278Z,72.29
2018-05-16T01:26:19.392Z,72.23
2018-05-16T01:28:47.489Z,72.37
2018-05-16T01:31:16.101Z,72.82
2018-05-16T01:33:44.220Z,72.78
2018-05-16T01:36:12.320Z,72.41
2018-05-16T01:38:40.444Z,71.91
2018-05-16T01:41:08.546Z,71.77
2018-05-16T01:43:36.654Z,72.01
2018-05-16T01:46:05.233Z,72.18
2018-05-16T01:48:33.324Z,71.72
2018-05-16T01:51:01.701Z,71.66
2018-05-16T01:53:30.077Z,71.21
2018-05-16T01:55:58.272Z,70.79
2018-05-16T01:58:26.296Z,70.70
2018-05-16T02:00:54.469Z,71.11
2018-05-16T02:03:22.568Z,71.12
2018-05-16T02:05:51.580Z,70.98
2018-05-16T02:08:19.729Z,70.74
2018-05-16T02:10:47.826Z,70.63
2018-05-16T02:13:16.747Z,70.58
2018-05-16T02:15:45.200Z,69.85
2018-05-16T02:18:13.305Z,69.98
2018-05-16T02:20:41.874Z,70.40
2018-05-16T02:23:09.968Z,70.53
2018-05-16T02:35:23.092Z,70.81
2018-05-16T02:37:52.146Z,70.85
2018-05-16T02:40:21.125Z,70.59
2018-05-16T02:42:49.241Z,70.67
2018-05-16T02:45:17.981Z,70.62
2018-05-16T02:47:46.087Z,70.52
2018-05-16T02:50:14.217Z,70.43
2018-05-16T02:52:42.314Z,70.61
2018-05-16T02:55:10.416Z,70.59
2018-05-16T02:57:38.561Z,70.75
2018-05-16T03:00:06.677Z,70.62
2018-05-16T03:02:34.777Z,70.53
2018-05-16T03:05:02.902Z,70.85
2018-05-16T03:07:31.303Z,70.36
2018-05-16T03:09:59.408Z,70.08
2018-05-16T03:12:27.557Z,70.01
2018-05-16T03:14:55.689Z,70.08
2018-05-16T03:17:23.810Z,69.92
2018-05-16T03:19:51.941Z,70.46
2018-05-16T03:22:20.050Z,70.67
2018-05-16T03:24:48.218Z,70.74
2018-05-16T03:27:21.271Z,70.90
2018-05-16T03:29:49.364Z,70.60
2018-05-16T03:32:17.547Z,70.42
2018-05-16T03:34:45.662Z,70.55
2018-05-16T03:37:13.757Z,70.09
2018-05-16T03:39:41.861Z,70.18
2018-05-16T03:42:09.977Z,70.31
2018-05-16T03:44:38.074Z,70.16
2018-05-16T03:47:06.189Z,70.57
2018-05-16T03:49:35.081Z,70.96
2018-05-16T03:52:03.254Z,71.39
2018-05-16T03:54:31.375Z,71.48
2018-05-16T03:56:59.492Z,71.20
2018-05-16T03:59:39.319Z,71.16
2018-05-16T04:02:19.209Z,71.03
2018-05-16T04:04:47.768Z,71.55
2018-05-16T04:07:15.859Z,71.58
2018-05-16T04:09:43.957Z,71.66
2018-05-16T04:12:12.085Z,71.49
2018-05-16T04:14:40.525Z,72.10
2018-05-16T04:17:08.643Z,72.12
2018-05-16T04:19:36.789Z,71.74
2018-05-16T04:22:05.163Z,71.89
2018-05-16T04:24:33.286Z,71.80
2018-05-16T04:27:01.433Z,71.50
2018-05-16T04:29:29.657Z,71.56
2018-05-16T04:31:57.794Z,71.58
2018-05-16T04:34:26.582Z,71.41
2018-05-16T04:36:54.999Z,71.52
2018-05-16T04:39:23.786Z,71.50
2018-05-16T04:41:52.002Z,71.55
2018-05-16T04:44:20.595Z,71.80
2018-05-16T04:46:48.693Z,71.16
2018-05-16T04:49:16.825Z,70.79
2018-05-16T04:51:44.923Z,70.33
2018-05-16T04:54:13.340Z,70.58
2018-05-16T04:56:41.477Z,70.33
2018-05-16T04:59:10.597Z,70.41
2018-05-16T05:01:38.713Z,70.61
2018-05-16T05:04:07.382Z,70.85
2018-05-16T05:06:35.472Z,71.24
2018-05-16T05:09:03.580Z,71.28
2018-05-16T05:11:31.705Z,70.99
2018-05-16T05:13:59.805Z,71.86
2018-05-16T05:16:28.565Z,71.97
2018-05-16T05:18:56.673Z,72.06
2018-05-16T05:21:24.779Z,72.45
2018-05-16T05:23:52.909Z,72.35
2018-05-16T05:26:22.038Z,71.87
2018-05-16T05:28:50.129Z,71.51
2018-05-16T05:31:18.243Z,71.42
2018-05-16T05:33:46.989Z,71.17
2018-05-16T05:36:15.206Z,71.53
2018-05-16T05:38:43.257Z,71.23
2018-05-16T05:41:11.378Z,70.79
2018-05-16T05:43:39.479Z,70.67
2018-05-16T05:46:07.845Z,70.70
2018-05-16T05:48:35.965Z,70.98
2018-05-16T06:04:04.101Z,71.55
2018-05-16T06:06:32.223Z,71.87
2018-05-16T06:09:00.334Z,71.79
2018-05-16T06:11:28.446Z,72.30
2018-05-16T06:13:56.569Z,72.31
2018-05-16T06:16:25.638Z,72.14
2018-05-16T06:18:54.358Z,71.99
2018-05-16T06:21:22.488Z,71.79
2018-05-16T06:23:50.585Z,70.69
2018-05-16T06:26:18.733Z,70.63
2018-05-16T06:28:46.847Z,70.03
2018-05-16T06:31:15.868Z,69.74
2018-05-16T06:33:43.989Z,70.34
2018-05-16T06:36:12.096Z,70.30
2018-05-16T06:38:40.209Z,70.46
2018-05-16T06:41:08.389Z,70.63
2018-05-16T06:43:36.481Z,70.84
2018-05-16T06:46:04.602Z,70.72
2018-05-16T06:48:32.717Z,70.80
2018-05-16T06:51:01.571Z,70.85
2018-05-16T06:53:29.910Z,70.64
2018-05-16T06:55:58.057Z,71.00
2018-05-16T06:58:26.188Z,71.16
2018-05-16T07:00:54.303Z,70.96
2018-05-16T07:03:22.890Z,70.97
2018-05-16T07:05:50.990Z,71.00
2018-05-16T07:08:19.109Z,71.10
2018-05-16T07:10:47.228Z,70.92
2018-05-16T07:13:20.284Z,70.79
2018-05-16T07:15:48.399Z,71.06
2018-05-16T07:18:16.504Z,71.16
2018-05-16T07:23:18.602Z,71.18
2018-05-16T07:25:46.711Z,71.14
2018-05-16T07:28:14.904Z,71.03
2018-05-16T07:30:43.854Z,70.79
2018-05-16T07:33:11.965Z,70.22
2018-05-16T07:35:40.079Z,70.20
2018-05-16T07:38:08.227Z,70.21
2018-05-16T07:40:37.135Z,70.08
2018-05-16T07:43:05.241Z,69.95
2018-05-16T07:45:33.355Z,70.26
2018-05-16T07:48:01.457Z,70.45
2018-05-16T07:50:29.574Z,69.74
2018-05-16T07:52:57.707Z,69.13
2018-05-16T07:55:25.833Z,68.33
2018-05-16T07:57:54.354Z,68.05
2018-05-16T08:00:22.457Z,68.36
2018-05-16T08:02:50.557Z,68.38
2018-05-16T08:05:18.676Z,68.12
2018-05-16T08:07:47.040Z,68.24
2018-05-16T08:10:15.152Z,68.66
2018-05-16T08:12:43.265Z,68.76
2018-05-16T08:15:12.336Z,68.47
2018-05-16T08:17:40.439Z,68.55
2018-05-16T08:20:08.546Z,68.86
2018-05-16T08:22:37.697Z,68.39
2018-05-16T08:25:05.793Z,68.61
2018-05-16T08:27:33.908Z,68.51
2018-05-16T08:30:02.342Z,68.35
2018-05-16T08:32:30.429Z,68.47
2018-05-16T08:34:58.527Z,68.07
2018-05-16T08:37:26.723Z,68.06
2018-05-16T08:39:54.930Z,67.62
2018-05-16T08:42:23.014Z,68.09
2018-05-16T08:44:51.658Z,68.29
2018-05-16T08:47:19.805Z,68.42
2018-05-16T08:49:48.386Z,68.07
2018-05-16T08:52:16.485Z,67.61
2018-05-16T08:54:44.638Z,67.75
2018-05-16T08:57:12.762Z,67.82
2018-05-16T08:59:40.895Z,67.44
2018-05-16T09:02:09.022Z,67.68
2018-05-16T09:04:37.487Z,67.63
2018-05-16T09:07:05.594Z,67.40
2018-05-16T09:09:39.364Z,67.25
2018-05-16T09:12:13.045Z,67.19
2018-05-16T09:14:41.195Z,67.35
2018-05-16T09:17:09.587Z,67.04
2018-05-16T09:19:37.686Z,66.41
2018-05-16T09:22:06.726Z,66.81
2018-05-16T09:24:34.820Z,66.77
2018-05-16T09:27:02.945Z,66.52
2018-05-16T09:29:31.067Z,66.78
2018-05-16T09:31:59.189Z,67.15
2018-05-16T09:34:27.304Z,67.03
2018-05-16T09:36:56.192Z,67.58
2018-05-16T09:39:24.306Z,67.79
2018-05-16T09:41:52.404Z,67.69
2018-05-16T09:44:20.550Z,68.10
2018-05-16T09:46:48.653Z,67.97
2018-05-16T09:49:16.873Z,68.44
2018-05-16T09:51:44.968Z,67.99
2018-05-16T09:54:13.085Z,67.55
2018-05-16T09:56:41.197Z,67.54
2018-05-16T09:59:09.316Z,67.37
2018-05-16T10:01:37.941Z,67.10
2018-05-16T10:04:06.078Z,67.08
2018-05-16T10:06:34.179Z,66.80
2018-05-16T10:09:08.720Z,67.05
2018-05-16T10:11:42.469Z,66.67
2018-05-16T10:14:10.578Z,66.95
2018-05-16T10:16:39.674Z,66.69
2018-05-16T10:19:07.791Z,65.89
2018-05-16T10:21:35.944Z,65.37
2018-05-16T10:24:04.044Z,65.85
2018-05-16T10:26:32.368Z,65.58
2018-05-16T10:29:00.474Z,65.65
2018-05-16T10:31:28.600Z,66.00
2018-05-16T10:33:56.760Z,65.56
2018-05-16T10:36:24.912Z,65.17
2018-05-16T10:38:53.017Z,64.98
2018-05-16T10:41:21.765Z,65.11
2018-05-16T10:43:49.868Z,64.59
2018-05-16T10:46:17.969Z,64.77
2018-05-16T10:48:46.938Z,64.82
2018-05-16T10:51:15.052Z,63.71
2018-05-16T10:53:43.162Z,63.14
2018-05-16T10:56:11.632Z,62.84
2018-05-16T10:58:39.740Z,62.26
2018-05-16T11:01:07.908Z,62.54
2018-05-16T11:03:36.055Z,62.39
2018-05-16T11:06:05.117Z,61.82
2018-05-16T11:08:33.176Z,62.01
2018-05-16T11:11:06.909Z,62.80
2018-05-16T11:13:35.818Z,63.05
2018-05-16T11:16:04.006Z,62.51
2018-05-16T11:18:32.130Z,61.89
2018-05-16T11:21:00.989Z,62.36
2018-05-16T11:23:29.708Z,61.91
2018-05-16T11:25:57.821Z,61.75
2018-05-16T11:28:26.014Z,61.23
2018-05-16T11:30:54.167Z,61.71
2018-05-16T11:33:22.252Z,61.54
2018-05-16T11:35:51.886Z,62.08
2018-05-16T11:38:19.994Z,61.85
2018-05-16T11:40:48.102Z,61.78
2018-05-16T11:43:16.212Z,61.68
2018-05-16T11:45:45.209Z,61.37
2018-05-16T11:48:13.325Z,61.28
2018-05-16T11:50:42.381Z,61.56
2018-05-16T11:53:16.018Z,61.47
2018-05-16T11:55:44.131Z,61.36
2018-05-16T11:58:12.476Z,61.37
2018-05-16T12:00:40.579Z,61.16
2018-05-16T12:03:08.706Z,60.98
2018-05-16T12:05:37.617Z,60.90
2018-05-16T12:08:05.724Z,61.47
2018-05-16T12:10:33.849Z,61.64
2018-05-16T12:13:01.944Z,61.04
2018-05-16T12:15:30.067Z,60.97
2018-05-16T12:17:58.178Z,61.65
2018-05-16T12:20:27.260Z,61.43
2018-05-16T12:22:55.371Z,60.94
2018-05-16T12:25:23.493Z,61.69
2018-05-16T12:27:51.606Z,61.91
2018-05-16T12:30:19.727Z,61.12
2018-05-16T12:32:47.833Z,60.89
2018-05-16T12:35:16.268Z,60.66
2018-05-16T12:37:44.377Z,60.74
2018-05-16T12:40:13.051Z,61.36
2018-05-16T12:42:52.785Z,60.71
2018-05-16T12:45:20.913Z,60.84
2018-05-16T12:47:49.013Z,60.21
2018-05-16T12:50:17.159Z,60.51
2018-05-16T12:52:45.575Z,61.13
2018-05-16T12:55:14.566Z,61.25
2018-05-16T12:57:42.675Z,62.01
2018-05-16T13:00:10.869Z,62.74
2018-05-16T13:02:38.979Z,63.42
2018-05-16T13:05:07.699Z,63.21
2018-05-16T13:07:36.050Z,62.64
2018-05-16T13:10:04.153Z,62.31
2018-05-16T13:12:32.250Z,62.13
2018-05-16T13:15:06.090Z,61.17
2018-05-16T13:17:40.680Z,60.80
2018-05-16T13:20:09.405Z,61.26
2018-05-16T13:22:37.501Z,60.24
2018-05-16T13:25:05.914Z,60.39
2018-05-16T13:27:34.170Z,60.31
2018-05-16T13:30:02.594Z,60.05
2018-05-16T13:32:32.517Z,61.15
2018-05-16T13:35:00.660Z,61.74
2018-05-16T13:37:28.761Z,61.59
2018-05-16T13:49:42.748Z,60.15
2018-05-16T13:52:10.844Z,60.13
2018-05-16T13:54:38.956Z,60.21
2018-05-16T13:57:07.073Z,61.16
2018-05-16T13:59:35.246Z,60.99
2018-05-16T14:02:03.336Z,60.34
2018-05-16T14:04:31.457Z,61.65
2018-05-16T14:06:59.568Z,61.49
2018-05-16T14:09:27.919Z,60.87
2018-05-16T14:11:56.265Z,61.10
2018-05-16T14:14:24.399Z,60.87
2018-05-16T14:16:52.479Z,61.71
2018-05-16T14:19:20.824Z,61.64
2018-05-16T14:21:49.980Z,60.98
2018-05-16T14:24:18.079Z,61.05
2018-05-16T14:26:46.166Z,61.36
2018-05-16T14:29:14.269Z,62.64
2018-05-16T14:31:42.386Z,61.89
2018-05-16T14:34:10.510Z,62.16
2018-05-16T14:36:38.613Z,62.41
2018-05-16T14:39:07.374Z,62.65
2018-05-16T14:41:35.510Z,63.36
2018-05-16T14:44:03.829Z,62.55
2018-05-16T14:46:31.924Z,62.46
2018-05-16T14:49:00.044Z,63.38
2018-05-16T14:51:28.181Z,63.46
2018-05-16T14:53:56.305Z,62.95
2018-05-16T15:09:25.449Z,62.23
2018-05-16T15:11:53.557Z,62.30
2018-05-16T15:14:22.000Z,63.27
2018-05-16T15:16:51.001Z,62.93
2018-05-16T15:19:19.930Z,63.04
2018-05-16T15:21:48.034Z,61.93
2018-05-16T15:24:16.135Z,61.81
2018-05-16T15:26:44.265Z,62.21
2018-05-16T15:29:13.369Z,62.57
2018-05-16T15:31:41.483Z,62.12
2018-05-16T15:34:09.573Z,62.14
2018-05-16T15:36:37.687Z,62.93
2018-05-16T15:39:06.577Z,63.59
2018-05-16T15:41:34.668Z,63.50
2018-05-16T15:44:02.776Z,63.58
2018-05-16T15:46:31.916Z,63.87
2018-05-16T15:49:00.041Z,65.17
2018-05-16T15:51:28.146Z,65.54
2018-05-16T15:53:57.250Z,64.95
2018-05-16T15:56:25.368Z,65.01
2018-05-16T15:58:53.519Z,65.17
2018-05-16T16:01:21.597Z,65.33
2018-05-16T16:03:49.719Z,65.95
2018-05-16T16:06:17.869Z,65.42
2018-05-16T16:08:45.997Z,65.13
2018-05-16T16:11:14.328Z,65.62
2018-05-16T16:13:42.452Z,65.25
2018-05-16T16:16:10.589Z,65.45
2018-05-16T16:18:38.686Z,65.85
2018-05-16T16:21:07.064Z,64.90
2018-05-16T16:23:35.179Z,64.91
2018-05-16T16:26:03.290Z,64.55
2018-05-16T16:28:31.519Z,64.22
2018-05-16T16:30:59.605Z,65.13
2018-05-16T16:33:27.718Z,65.23
2018-05-16T16:35:55.837Z,65.25
2018-05-16T16:38:23.937Z,65.31
2018-05-16T16:40:52.426Z,65.79
2018-05-16T16:43:20.529Z,65.93
2018-05-16T16:45:48.690Z,65.63
2018-05-16T16:48:16.765Z,66.54
2018-05-16T16:50:44.887Z,66.62
2018-05-16T16:53:12.996Z,65.85
2018-05-16T16:55:41.176Z,66.02
2018-05-16T16:58:09.285Z,66.27
2018-05-16T17:00:37.393Z,66.12
2018-05-16T17:03:05.491Z,65.74
2018-05-16T17:05:33.609Z,65.69
2018-05-16T17:08:01.829Z,65.76
2018-05-16T17:10:31.059Z,65.77
2018-05-16T17:12:59.709Z,66.74
2018-05-16T17:15:27.805Z,67.44
2018-05-16T17:17:55.905Z,67.61
2018-05-16T17:20:24.037Z,67.14
2018-05-16T17:22:54.512Z,66.89
2018-05-16T17:25:22.652Z,67.54
2018-05-16T17:27:51.630Z,68.05
2018-05-16T17:30:20.128Z,67.53
2018-05-16T17:32:48.497Z,67.56
2018-05-16T17:35:16.825Z,68.01
2018-05-16T17:37:44.974Z,68.44
2018-05-16T17:40:13.153Z,68.54
2018-05-16T17:42:42.156Z,68.68
2018-05-16T17:45:10.567Z,68.35
2018-05-16T17:47:38.687Z,68.70
2018-05-16T17:50:06.790Z,68.71
2018-05-16T17:52:35.782Z,68.30
2018-05-16T17:55:04.876Z,68.81
2018-05-16T17:57:33.787Z,68.41
2018-05-16T18:00:01.912Z,68.88
2018-05-16T18:02:31.523Z,68.53
2018-05-16T18:04:59.639Z,68.02
2018-05-16T18:07:27.739Z,68.34
2018-05-16T18:10:01.453Z,67.89
2018-05-16T18:12:29.587Z,67.89
2018-05-16T18:15:13.114Z,68.46
2018-05-16T18:17:42.139Z,69.50
2018-05-16T18:20:10.241Z,69.23
2018-05-16T18:22:38.452Z,68.93
2018-05-16T18:25:06.553Z,68.87
2018-05-16T18:27:35.402Z,68.57
2018-05-16T18:30:03.910Z,68.50
2018-05-16T18:32:32.016Z,67.94
2018-05-16T18:35:00.122Z,67.67
2018-05-16T18:37:28.991Z,68.02
2018-05-16T18:39:57.121Z,67.48
2018-05-16T18:42:25.302Z,67.47
2018-05-16T18:44:53.377Z,67.43
2018-05-16T18:47:22.167Z,67.01
2018-05-16T18:49:50.306Z,66.87
2018-05-16T18:52:18.441Z,67.16
2018-05-16T18:54:46.559Z,66.82
2018-05-16T18:57:14.709Z,66.88
2018-05-16T18:59:42.857Z,67.78
2018-05-16T19:02:10.925Z,68.31
2018-05-16T19:04:39.016Z,68.07
2018-05-16T19:07:07.161Z,67.95
2018-05-16T19:09:35.253Z,67.76
2018-05-16T19:12:03.381Z,68.17
2018-05-16T19:14:32.367Z,68.30
2018-05-16T19:17:05.388Z,68.19
2018-05-16T19:19:33.561Z,68.89
2018-05-16T19:22:01.656Z,68.57
2018-05-16T19:24:29.760Z,69.31
2018-05-16T19:26:57.911Z,68.74
2018-05-16T19:29:26.393Z,68.77
2018-05-16T19:31:54.876Z,68.78
2018-05-16T19:34:22.995Z,68.58
2018-05-16T19:36:51.165Z,67.94
2018-05-16T19:39:19.258Z,67.91
2018-05-16T19:41:47.575Z,68.69
2018-05-16T19:44:15.679Z,68.79
2018-05-16T19:46:44.085Z,68.53
2018-05-16T19:49:12.192Z,68.20
2018-05-16T19:51:40.299Z,68.07
2018-05-16T19:54:08.495Z,67.82
2018-05-16T19:56:36.594Z,68.47
2018-05-16T19:59:04.717Z,67.92
2018-05-16T20:01:33.145Z,68.14
2018-05-16T20:04:01.773Z,67.82
2018-05-16T20:06:35.523Z,67.50
2018-05-16T20:09:04.635Z,67.83
2018-05-16T20:11:33.014Z,67.48
2018-05-16T20:14:01.104Z,67.18
2018-05-16T20:16:29.414Z,67.56
2018-05-16T20:18:57.559Z,66.98
2018-05-16T20:21:25.673Z,66.91
2018-05-16T20:23:53.795Z,66.43
2018-05-16T20:26:21.891Z,66.86
2018-05-16T20:28:49.980Z,66.50
2018-05-16T20:31:18.097Z,66.92
2018-05-16T20:33:46.189Z,65.74
2018-05-16T20:36:14.293Z,66.05
2018-05-16T20:38:42.401Z,65.76
2018-05-16T20:41:10.541Z,66.24
2018-05-16T20:43:38.673Z,65.35
2018-05-16T20:46:06.766Z,65.64
2018-05-16T20:48:34.873Z,66.17
2018-05-16T20:51:03.644Z,66.23
2018-05-16T20:53:31.745Z,65.83
2018-05-16T20:55:59.841Z,66.33
2018-05-16T20:58:28.457Z,65.96
2018-05-16T21:00:56.581Z,66.35
2018-05-16T21:03:24.701Z,66.41
2018-05-16T21:05:58.389Z,66.42
2018-05-16T21:08:32.053Z,66.05
2018-05-16T21:11:00.177Z,66.27
2018-05-16T21:13:28.306Z,66.20
2018-05-16T21:15:56.405Z,65.71
2018-05-16T21:18:24.615Z,66.15
2018-05-16T21:20:52.710Z,66.53
2018-05-16T21:23:20.805Z,66.71
2018-05-16T21:25:48.943Z,66.87
2018-05-16T21:28:17.061Z,67.00
2018-05-16T21:30:50.169Z,66.85
2018-05-16T21:33:18.571Z,66.78
2018-05-16T21:35:46.664Z,66.47
2018-05-16T21:38:14.807Z,66.53
2018-05-16T21:40:43.186Z,66.68
2018-05-16T21:43:11.265Z,66.75
2018-05-16T21:45:39.398Z,66.76
2018-05-16T21:48:08.230Z,66.66
2018-05-16T21:50:36.365Z,66.76
2018-05-16T21:53:04.476Z,66.87
2018-05-16T21:55:32.575Z,66.54
2018-05-16T22:11:00.682Z,66.58
2018-05-16T22:13:28.812Z,67.16
2018-05-16T22:15:56.928Z,67.22
2018-05-16T22:18:25.030Z,67.06
2018-05-16T22:20:53.466Z,66.91
2018-05-16T22:23:21.580Z,67.15
2018-05-16T22:25:49.685Z,66.88
2018-05-16T22:28:18.526Z,67.11
2018-05-16T22:30:52.229Z,67.32
2018-05-16T22:33:25.860Z,66.88
2018-05-16T22:35:59.541Z,66.38
2018-05-16T22:38:33.209Z,66.88
2018-05-16T22:41:06.927Z,66.94
2018-05-16T22:43:40.582Z,66.73
2018-05-16T22:46:08.672Z,66.71
2018-05-16T22:48:36.861Z,66.68
2018-05-16T22:51:04.964Z,67.00
2018-05-16T22:53:33.939Z,66.47
2018-05-16T22:56:02.076Z,66.39
2018-05-16T22:58:30.188Z,66.79
2018-05-16T23:00:58.366Z,66.32
2018-05-16T23:03:27.088Z,66.35
2018-05-16T23:05:55.180Z,66.61
2018-05-16T23:08:23.296Z,66.38
2018-05-16T23:10:51.809Z,65.50
2018-05-16T23:13:19.914Z,66.20
2018-05-16T23:15:48.030Z,65.65
2018-05-16T23:18:16.134Z,65.64
2018-05-16T23:20:45.257Z,65.47
2018-05-16T23:23:13.377Z,65.56
2018-05-16T23:25:41.476Z,65.58
2018-05-16T23:28:09.624Z,66.08
2018-05-16T23:30:37.713Z,65.74
2018-05-16T23:33:05.812Z,66.12
2018-05-16T23:35:33.922Z,66.09
2018-05-16T23:38:02.029Z,66.07
2018-05-16T23:40:30.152Z,66.14
2018-05-16T23:55:58.284Z,67.82
2018-05-16T23:58:26.373Z,67.92
